createdAt,value
2017-12-17T00:00:09.868Z,7.70
2017-12-17T00:02:37.274Z,7.45
2017-12-17T00:05:04.685Z,7.82
2017-12-17T00:07:32.118Z,8.85
2017-12-17T00:09:59.596Z,8.05
2017-12-17T00:12:26.984Z,7.22
2017-12-17T00:14:54.416Z,7.55
2017-12-17T00:17:21.902Z,8.95
2017-12-17T00:19:49.319Z,7.50
2017-12-17T00:22:16.830Z,8.40
2017-12-17T00:24:44.408Z,9.68
2017-12-17T00:27:12.553Z,7.57
2017-12-17T00:29:40.736Z,7.43
2017-12-17T00:32:08.243Z,8.15
2017-12-17T00:34:35.715Z,8.10
2017-12-17T00:37:03.139Z,7.90
2017-12-17T00:39:30.554Z,7.35
2017-12-17T00:41:57.969Z,8.30
2017-12-17T00:44:25.429Z,8.10
2017-12-17T00:46:52.897Z,7.50
2017-12-17T00:49:20.330Z,8.15
2017-12-17T00:51:47.840Z,7.90
2017-12-17T00:54:15.243Z,7.72
2017-12-17T00:56:43.418Z,6.75
2017-12-17T00:59:10.837Z,7.37
2017-12-17T01:01:38.277Z,6.80
2017-12-17T01:04:06.496Z,7.30
2017-12-17T01:06:34.306Z,7.40
2017-12-17T01:09:01.685Z,7.50
2017-12-17T01:11:29.181Z,7.28
2017-12-17T01:13:57.450Z,7.60
2017-12-17T01:16:24.862Z,7.30
2017-12-17T01:18:52.283Z,7.40
2017-12-17T01:21:19.700Z,7.60
2017-12-17T01:23:47.127Z,7.57
2017-12-17T01:26:14.548Z,6.95
2017-12-17T01:28:41.970Z,10.50
2017-12-17T01:31:09.403Z,7.90
2017-12-17T01:33:36.890Z,7.25
2017-12-17T01:36:04.323Z,6.87
2017-12-17T01:38:31.734Z,6.65
2017-12-17T01:41:04.169Z,7.25
2017-12-17T01:43:31.610Z,6.75
2017-12-17T01:45:59.087Z,6.60
2017-12-17T01:48:26.624Z,5.90
2017-12-17T01:50:54.082Z,6.43
2017-12-17T01:53:21.549Z,6.40
2017-12-17T01:55:48.968Z,6.15
2017-12-17T01:58:17.295Z,5.85
2017-12-17T02:00:45.465Z,5.85
2017-12-17T02:03:13.671Z,5.60
2017-12-17T02:05:41.086Z,6.10
2017-12-17T02:08:08.508Z,5.97
2017-12-17T02:10:35.993Z,5.90
2017-12-17T02:13:03.474Z,5.90
2017-12-17T02:15:30.964Z,5.95
2017-12-17T02:17:58.392Z,6.72
2017-12-17T02:20:25.851Z,6.37
2017-12-17T02:22:53.285Z,7.00
2017-12-17T02:25:21.508Z,6.85
2017-12-17T02:27:49.688Z,6.50
2017-12-17T02:30:17.187Z,7.05
2017-12-17T02:32:44.662Z,7.00
2017-12-17T02:35:12.101Z,7.72
2017-12-17T02:37:39.571Z,7.75
2017-12-17T02:40:07.030Z,9.63
2017-12-17T02:42:34.477Z,7.30
2017-12-17T02:45:02.664Z,7.60
2017-12-17T02:47:30.837Z,7.20
2017-12-17T02:49:59.038Z,7.93
2017-12-17T02:52:27.277Z,7.70
2017-12-17T02:54:54.686Z,7.55
2017-12-17T02:57:22.954Z,7.45
2017-12-17T02:59:50.322Z,6.90
2017-12-17T03:02:17.834Z,7.40
2017-12-17T03:04:45.298Z,6.32
2017-12-17T03:07:12.726Z,6.78
2017-12-17T03:09:40.143Z,7.53
2017-12-17T03:12:07.627Z,8.00
2017-12-17T03:14:35.046Z,7.28
2017-12-17T03:17:03.223Z,7.60
2017-12-17T03:19:31.156Z,6.25
2017-12-17T03:21:58.800Z,6.12
2017-12-17T03:24:26.277Z,6.20
2017-12-17T03:26:53.716Z,6.72
2017-12-17T03:29:21.138Z,6.45
2017-12-17T03:31:48.617Z,6.45
2017-12-17T03:34:16.025Z,6.65
2017-12-17T03:36:43.431Z,6.70
2017-12-17T03:39:10.846Z,5.78
2017-12-17T03:41:39.790Z,6.15
2017-12-17T03:44:07.210Z,5.80
2017-12-17T03:46:34.622Z,6.15
2017-12-17T03:49:02.055Z,6.10
2017-12-17T03:51:29.441Z,5.53
2017-12-17T03:53:57.626Z,5.80
2017-12-17T03:56:25.045Z,5.93
2017-12-17T03:58:52.456Z,6.40
2017-12-17T04:01:19.960Z,6.15
2017-12-17T04:03:47.436Z,5.53
2017-12-17T04:06:14.855Z,6.80
2017-12-17T04:08:42.365Z,5.97
2017-12-17T04:11:09.792Z,5.90
2017-12-17T04:13:37.197Z,6.70
2017-12-17T04:16:04.609Z,6.40
2017-12-17T04:18:32.041Z,6.10
2017-12-17T04:20:59.451Z,5.78
2017-12-17T04:23:26.870Z,6.50
2017-12-17T04:25:54.344Z,6.85
2017-12-17T04:28:21.787Z,6.70
2017-12-17T04:30:49.985Z,6.68
2017-12-17T04:33:18.182Z,6.80
2017-12-17T04:35:45.603Z,6.57
2017-12-17T04:38:13.029Z,7.43
2017-12-17T04:40:40.490Z,7.10
2017-12-17T04:43:07.967Z,7.45
2017-12-17T04:45:35.394Z,7.43
2017-12-17T04:48:03.594Z,6.65
2017-12-17T04:50:31.767Z,7.25
2017-12-17T04:52:59.951Z,7.90
2017-12-17T04:55:28.186Z,7.18
2017-12-17T04:57:55.582Z,8.20
2017-12-17T05:00:22.998Z,7.30
2017-12-17T05:02:50.489Z,6.87
2017-12-17T05:05:17.920Z,7.22
2017-12-17T05:07:46.138Z,6.72
2017-12-17T05:10:13.604Z,7.30
2017-12-17T05:12:41.750Z,8.00
2017-12-17T05:15:10.110Z,6.78
2017-12-17T05:17:37.498Z,7.85
2017-12-17T05:20:05.012Z,7.40
2017-12-17T05:22:32.450Z,7.22
2017-12-17T05:25:00.638Z,7.57
2017-12-17T05:27:28.826Z,8.20
2017-12-17T05:29:57.038Z,8.40
2017-12-17T05:32:24.512Z,7.25
2017-12-17T05:34:51.942Z,7.20
2017-12-17T05:37:20.159Z,7.18
2017-12-17T05:39:47.647Z,7.20
2017-12-17T05:42:15.102Z,7.20
2017-12-17T05:44:42.530Z,7.80
2017-12-17T05:47:09.941Z,6.70
2017-12-17T05:49:37.372Z,6.90
2017-12-17T05:52:05.554Z,7.07
2017-12-17T05:54:33.747Z,6.47
2017-12-17T05:57:01.929Z,7.10
2017-12-17T05:59:30.118Z,6.95
2017-12-17T06:01:58.345Z,6.90
2017-12-17T06:04:25.758Z,6.90
2017-12-17T06:06:54.679Z,7.45
2017-12-17T06:09:22.870Z,6.55
2017-12-17T06:11:51.069Z,6.28
2017-12-17T06:14:18.483Z,6.87
2017-12-17T06:16:45.918Z,7.50
2017-12-17T06:19:13.337Z,7.15
2017-12-17T06:21:40.960Z,7.47
2017-12-17T06:24:09.139Z,6.40
2017-12-17T06:26:36.550Z,6.37
2017-12-17T06:29:04.090Z,7.05
2017-12-17T06:31:31.548Z,6.75
2017-12-17T06:33:59.704Z,6.97
2017-12-17T06:36:27.893Z,6.90
2017-12-17T06:38:56.124Z,6.68
2017-12-17T06:41:23.547Z,6.55
2017-12-17T06:43:51.754Z,7.20
2017-12-17T06:46:19.174Z,6.55
2017-12-17T06:48:46.589Z,7.75
2017-12-17T06:51:14.073Z,7.10
2017-12-17T06:53:41.482Z,7.45
2017-12-17T06:56:09.086Z,7.30
2017-12-17T06:58:36.442Z,6.95
2017-12-17T07:01:04.616Z,7.28
2017-12-17T07:03:32.118Z,6.90
2017-12-17T07:05:59.602Z,7.35
2017-12-17T07:08:27.092Z,8.60
2017-12-17T07:10:54.515Z,9.35
2017-12-17T07:13:22.844Z,7.57
2017-12-17T07:15:50.302Z,8.20
2017-12-17T07:18:17.709Z,8.43
2017-12-17T07:20:45.144Z,8.13
2017-12-17T07:23:12.541Z,8.63
2017-12-17T07:25:39.962Z,8.23
2017-12-17T07:28:07.378Z,9.52
2017-12-17T07:30:34.789Z,8.40
2017-12-17T07:33:02.281Z,8.90
2017-12-17T07:35:29.707Z,7.93
2017-12-17T07:37:57.893Z,8.68
2017-12-17T07:40:26.083Z,8.90
2017-12-17T07:42:54.304Z,9.35
2017-12-17T07:45:21.722Z,9.10
2017-12-17T07:47:49.240Z,8.60
2017-12-17T07:50:16.708Z,9.77
2017-12-17T07:52:44.160Z,9.90
2017-12-17T07:55:12.363Z,9.13
2017-12-17T07:57:39.784Z,10.57
2017-12-17T08:00:07.197Z,10.13
2017-12-17T08:02:34.618Z,9.75
2017-12-17T08:05:02.034Z,10.40
2017-12-17T08:07:29.447Z,11.10
2017-12-17T08:09:56.863Z,10.63
2017-12-17T08:12:24.340Z,10.18
2017-12-17T08:14:51.811Z,10.32
2017-12-17T08:17:19.260Z,10.43
2017-12-17T08:19:47.461Z,11.18
2017-12-17T08:22:14.886Z,11.27
2017-12-17T08:24:42.402Z,10.95
2017-12-17T08:27:09.833Z,12.10
2017-12-17T08:29:38.058Z,11.20
2017-12-17T08:32:05.470Z,12.77
2017-12-17T08:34:33.025Z,12.40
2017-12-17T08:37:00.434Z,12.88
2017-12-17T08:39:28.644Z,12.52
2017-12-17T08:41:56.814Z,12.98
2017-12-17T08:44:24.234Z,13.38
2017-12-17T08:46:51.676Z,13.45
2017-12-17T08:49:19.084Z,12.85
2017-12-17T08:51:46.624Z,13.20
2017-12-17T08:54:14.038Z,13.00
2017-12-17T08:56:42.253Z,13.55
2017-12-17T08:59:09.740Z,12.80
2017-12-17T09:01:37.154Z,13.98
2017-12-17T09:04:04.599Z,13.18
2017-12-17T09:06:32.006Z,15.52
2017-12-17T09:09:00.217Z,14.10
2017-12-17T09:11:27.689Z,13.60
2017-12-17T09:13:55.117Z,14.85
2017-12-17T09:16:22.622Z,13.60
2017-12-17T09:18:50.095Z,13.15
2017-12-17T09:21:18.286Z,13.93
2017-12-17T09:23:45.763Z,14.60
2017-12-17T09:26:13.173Z,14.15
2017-12-17T09:28:40.593Z,13.88
2017-12-17T09:31:08.013Z,15.15
2017-12-17T09:33:36.222Z,13.30
2017-12-17T09:36:04.386Z,13.90
2017-12-17T09:38:31.813Z,14.18
2017-12-17T09:40:59.249Z,13.40
2017-12-17T09:43:26.728Z,13.82
2017-12-17T09:45:54.158Z,13.60
2017-12-17T09:48:22.385Z,10.52
2017-12-17T09:50:49.818Z,13.43
2017-12-17T09:53:17.250Z,12.73
2017-12-17T09:55:44.685Z,13.40
2017-12-17T09:58:12.117Z,12.40
2017-12-17T10:00:39.649Z,12.25
2017-12-17T10:03:07.066Z,12.02
2017-12-17T10:05:35.300Z,12.07
2017-12-17T10:08:02.706Z,10.95
2017-12-17T10:10:30.124Z,10.50
2017-12-17T10:12:57.541Z,11.45
2017-12-17T10:15:25.064Z,11.30
2017-12-17T10:17:53.253Z,9.65
2017-12-17T10:20:20.721Z,9.18
2017-12-17T10:22:48.871Z,7.95
2017-12-17T10:25:16.348Z,8.50
2017-12-17T10:27:44.561Z,6.47
2017-12-17T10:30:12.050Z,7.37
2017-12-17T10:32:39.493Z,6.97
2017-12-17T10:35:07.695Z,6.80
2017-12-17T10:37:35.107Z,6.28
2017-12-17T10:40:02.778Z,6.25
2017-12-17T10:42:30.312Z,5.90
2017-12-17T10:44:57.753Z,6.40
2017-12-17T10:47:25.170Z,6.10
2017-12-17T10:49:53.355Z,5.57
2017-12-17T10:52:20.774Z,5.90
2017-12-17T10:54:48.257Z,5.60
2017-12-17T10:57:15.685Z,5.60
2017-12-17T10:59:43.864Z,5.32
2017-12-17T11:02:11.398Z,4.20
2017-12-17T11:04:38.813Z,4.83
2017-12-17T11:07:06.977Z,4.97
2017-12-17T11:09:34.399Z,5.40
2017-12-17T11:12:01.903Z,5.17
2017-12-17T11:14:29.312Z,5.30
2017-12-17T11:16:57.530Z,5.20
2017-12-17T11:19:24.993Z,5.13
2017-12-17T11:21:53.137Z,5.37
2017-12-17T11:24:20.642Z,4.70
2017-12-17T11:26:48.110Z,5.37
2017-12-17T11:29:15.592Z,4.65
2017-12-17T11:31:43.010Z,5.50
2017-12-17T11:34:10.417Z,4.93
2017-12-17T11:36:37.858Z,5.05
2017-12-17T11:39:05.262Z,4.77
2017-12-17T11:41:32.690Z,5.30
2017-12-17T11:44:00.917Z,4.85
2017-12-17T11:46:28.329Z,4.60
2017-12-17T11:48:55.842Z,4.90
2017-12-17T11:51:23.318Z,4.45
2017-12-17T11:53:50.786Z,4.75
2017-12-17T11:56:18.235Z,5.35
2017-12-17T11:58:45.714Z,4.55
2017-12-17T12:01:13.218Z,4.80
2017-12-17T12:03:40.659Z,4.47
2017-12-17T12:06:08.083Z,4.70
2017-12-17T12:08:35.520Z,4.05
2017-12-17T12:11:02.972Z,4.03
2017-12-17T12:13:30.432Z,4.95
2017-12-17T12:15:57.853Z,4.10
2017-12-17T12:18:25.393Z,4.32
2017-12-17T12:20:52.835Z,4.10
2017-12-17T12:23:20.260Z,4.05
2017-12-17T12:25:47.686Z,4.40
2017-12-17T12:28:15.174Z,4.00
2017-12-17T12:30:42.632Z,3.92
2017-12-17T12:33:10.034Z,4.37
2017-12-17T12:35:37.486Z,4.60
2017-12-17T12:38:04.898Z,4.30
2017-12-17T12:40:33.078Z,4.03
2017-12-17T12:43:01.264Z,4.70
2017-12-17T12:45:29.470Z,4.70
2017-12-17T12:47:57.718Z,4.82
2017-12-17T12:50:25.213Z,4.97
2017-12-17T12:52:52.658Z,5.22
2017-12-17T12:55:20.149Z,5.03
2017-12-17T12:57:47.601Z,4.93
2017-12-17T13:00:15.078Z,5.00
2017-12-17T13:02:43.392Z,4.30
2017-12-17T13:05:10.924Z,4.45
2017-12-17T13:07:38.388Z,4.60
2017-12-17T13:10:05.829Z,4.60
2017-12-17T13:12:33.303Z,5.00
2017-12-17T13:15:00.756Z,4.68
2017-12-17T13:17:28.263Z,4.90
2017-12-17T13:19:55.753Z,5.10
2017-12-17T13:22:23.190Z,4.10
2017-12-17T13:24:50.613Z,4.50
2017-12-17T13:27:18.923Z,4.40
2017-12-17T13:29:47.934Z,4.30
2017-12-17T13:32:16.160Z,4.93
2017-12-17T13:34:43.695Z,4.82
2017-12-17T13:37:11.164Z,4.60
2017-12-17T13:39:39.650Z,4.57
2017-12-17T13:42:07.126Z,5.40
2017-12-17T13:44:34.568Z,5.07
2017-12-17T13:47:02.006Z,4.05
2017-12-17T13:49:29.569Z,4.97
2017-12-17T13:51:57.068Z,4.32
2017-12-17T13:54:24.473Z,4.90
2017-12-17T13:56:51.973Z,4.40
2017-12-17T13:59:19.431Z,3.97
2017-12-17T14:01:46.858Z,3.92
2017-12-17T14:04:14.359Z,5.27
2017-12-17T14:06:41.792Z,4.40
2017-12-17T14:09:10.218Z,3.78
2017-12-17T14:11:37.644Z,4.43
2017-12-17T14:14:05.135Z,4.03
2017-12-17T14:16:32.641Z,4.05
2017-12-17T14:19:00.069Z,3.40
2017-12-17T14:21:27.533Z,4.30
2017-12-17T14:23:54.976Z,3.37
2017-12-17T14:26:23.206Z,3.65
2017-12-17T14:28:50.658Z,3.65
2017-12-17T14:31:18.142Z,4.05
2017-12-17T14:33:45.564Z,4.00
2017-12-17T14:36:13.005Z,3.83
2017-12-17T14:38:43.121Z,3.50
2017-12-17T14:41:10.595Z,3.80
2017-12-17T14:43:38.037Z,4.00
2017-12-17T14:46:06.539Z,3.50
2017-12-17T14:48:33.982Z,4.22
2017-12-17T14:51:02.254Z,4.12
2017-12-17T14:53:29.701Z,3.85
2017-12-17T14:55:57.166Z,3.22
2017-12-17T14:58:24.631Z,3.47
2017-12-17T15:00:52.076Z,4.00
2017-12-17T15:03:19.546Z,4.47
2017-12-17T15:05:47.049Z,3.75
2017-12-17T15:08:14.537Z,3.70
2017-12-17T15:10:42.055Z,3.92
2017-12-17T15:13:10.289Z,3.90
2017-12-17T15:15:37.733Z,4.47
2017-12-17T15:18:05.271Z,4.62
2017-12-17T15:20:33.461Z,4.90
2017-12-17T15:23:00.902Z,5.35
2017-12-17T15:25:29.174Z,5.22
2017-12-17T15:27:56.617Z,5.40
2017-12-17T15:30:24.133Z,4.90
2017-12-17T15:32:52.388Z,5.12
2017-12-17T15:35:19.833Z,5.62
2017-12-17T15:37:47.328Z,5.57
2017-12-17T15:40:14.744Z,5.90
2017-12-17T15:42:42.972Z,5.90
2017-12-17T15:45:10.716Z,5.78
2017-12-17T15:47:38.156Z,6.95
2017-12-17T15:50:05.586Z,7.05
2017-12-17T15:52:33.089Z,7.18
2017-12-17T15:55:00.567Z,6.47
2017-12-17T15:57:28.001Z,6.78
2017-12-17T15:59:56.360Z,7.10
2017-12-17T16:02:23.845Z,7.70
2017-12-17T16:04:51.315Z,7.65
2017-12-17T16:07:18.760Z,7.68
2017-12-17T16:09:46.223Z,7.85
2017-12-17T16:12:13.657Z,8.63
2017-12-17T16:14:41.125Z,8.25
2017-12-17T16:17:09.362Z,9.15
2017-12-17T16:19:36.845Z,10.10
2017-12-17T16:22:04.326Z,8.15
2017-12-17T16:24:31.763Z,8.73
2017-12-17T16:26:59.175Z,8.82
2017-12-17T16:29:26.699Z,10.10
2017-12-17T16:31:54.231Z,9.77
2017-12-17T16:34:21.645Z,10.32
2017-12-17T16:36:49.072Z,9.60
2017-12-17T16:39:17.382Z,10.65
2017-12-17T16:41:44.836Z,9.90
2017-12-17T16:44:12.344Z,9.75
2017-12-17T16:46:39.843Z,11.02
2017-12-17T16:49:07.373Z,11.20
2017-12-17T16:51:35.558Z,9.95
2017-12-17T16:54:03.031Z,10.98
2017-12-17T16:56:30.421Z,10.95
2017-12-17T16:58:57.864Z,10.07
2017-12-17T17:01:25.278Z,10.25
2017-12-17T17:03:52.817Z,10.18
2017-12-17T17:06:20.217Z,10.85
2017-12-17T17:08:49.166Z,9.80
2017-12-17T17:11:16.750Z,10.15
2017-12-17T17:13:44.149Z,11.10
2017-12-17T17:16:11.562Z,11.75
2017-12-17T17:18:38.996Z,11.27
2017-12-17T17:21:06.509Z,12.68
2017-12-17T17:23:33.936Z,11.55
2017-12-17T17:26:01.362Z,11.68
2017-12-17T17:28:28.786Z,12.68
2017-12-17T17:30:56.295Z,14.20
2017-12-17T17:33:23.707Z,12.65
2017-12-17T17:35:51.134Z,13.55
2017-12-17T17:38:18.604Z,14.38
2017-12-17T17:40:46.004Z,15.63
2017-12-17T17:43:13.427Z,16.73
2017-12-17T17:45:40.903Z,17.50
2017-12-17T17:48:08.324Z,16.30
2017-12-17T17:50:35.740Z,16.33
2017-12-17T17:53:03.171Z,16.73
2017-12-17T17:55:30.581Z,16.90
2017-12-17T17:57:58.094Z,16.15
2017-12-17T18:00:26.271Z,16.85
2017-12-17T18:02:53.686Z,15.95
2017-12-17T18:05:21.103Z,15.07
2017-12-17T18:07:48.526Z,17.10
2017-12-17T18:10:15.942Z,19.45
2017-12-17T18:12:43.398Z,21.83
2017-12-17T18:15:10.850Z,21.35
2017-12-17T18:17:38.515Z,24.20
2017-12-17T18:20:06.766Z,20.83
2017-12-17T18:22:34.960Z,19.25
2017-12-17T18:25:02.501Z,19.17
2017-12-17T18:27:29.928Z,21.25
2017-12-17T18:29:57.332Z,18.10
2017-12-17T18:32:24.771Z,17.33
2017-12-17T18:34:52.177Z,17.73
2017-12-17T18:37:19.595Z,15.30
2017-12-17T18:39:47.025Z,18.17
2017-12-17T18:42:14.454Z,17.75
2017-12-17T18:44:41.869Z,18.37
2017-12-17T18:47:10.055Z,18.15
2017-12-17T18:49:37.510Z,19.80
2017-12-17T18:52:05.031Z,18.33
2017-12-17T18:54:32.509Z,19.08
2017-12-17T18:57:00.699Z,17.30
2017-12-17T18:59:28.151Z,18.33
2017-12-17T19:01:55.724Z,19.95
2017-12-17T19:04:23.924Z,21.23
2017-12-17T19:06:51.342Z,21.92
2017-12-17T19:09:18.808Z,19.05
2017-12-17T19:11:46.265Z,19.15
2017-12-17T19:14:13.733Z,20.33
2017-12-17T19:16:41.281Z,21.30
2017-12-17T19:19:08.826Z,20.37
2017-12-17T19:21:37.046Z,19.08
2017-12-17T19:24:04.525Z,17.92
2017-12-17T19:26:32.836Z,20.37
2017-12-17T19:29:00.277Z,18.17
2017-12-17T19:31:27.746Z,18.95
2017-12-17T19:33:55.203Z,16.95
2017-12-17T19:36:23.441Z,18.25
2017-12-17T19:38:50.873Z,19.10
2017-12-17T19:41:18.373Z,18.85
2017-12-17T19:43:45.894Z,19.08
2017-12-17T19:46:13.310Z,20.12
2017-12-17T19:48:41.582Z,21.75
2017-12-17T19:51:09.046Z,20.48
2017-12-17T19:53:36.494Z,22.40
2017-12-17T19:56:03.967Z,22.75
2017-12-17T19:58:31.442Z,24.48
2017-12-17T20:00:58.870Z,22.08
2017-12-17T20:03:27.125Z,20.45
2017-12-17T20:05:54.569Z,20.50
2017-12-17T20:08:22.012Z,19.85
2017-12-17T20:10:49.468Z,21.87
2017-12-17T20:13:16.907Z,21.62
2017-12-17T20:15:45.168Z,21.70
2017-12-17T20:18:12.655Z,21.42
2017-12-17T20:20:40.119Z,21.40
2017-12-17T20:23:07.568Z,23.33
2017-12-17T20:25:35.016Z,21.92
2017-12-17T20:28:02.439Z,23.40
2017-12-17T20:30:30.706Z,22.48
2017-12-17T20:32:58.181Z,21.73
2017-12-17T20:35:25.609Z,22.95
2017-12-17T20:37:53.047Z,22.17
2017-12-17T20:40:21.305Z,22.85
2017-12-17T20:42:48.821Z,22.33
2017-12-17T20:45:16.262Z,22.20
2017-12-17T20:47:44.445Z,24.40
2017-12-17T20:50:12.634Z,23.30
2017-12-17T20:52:40.074Z,22.55
2017-12-17T20:55:07.508Z,22.45
2017-12-17T20:57:34.969Z,23.35
2017-12-17T21:00:02.391Z,24.25
2017-12-17T21:02:29.796Z,24.15
2017-12-17T21:04:57.225Z,24.55
2017-12-17T21:07:25.429Z,23.90
2017-12-17T21:09:53.614Z,23.90
2017-12-17T21:12:21.813Z,23.95
2017-12-17T21:14:50.006Z,24.73
2017-12-17T21:17:17.446Z,24.75
2017-12-17T21:19:45.685Z,23.73
2017-12-17T21:22:13.146Z,22.90
2017-12-17T21:24:40.606Z,23.62
2017-12-17T21:27:08.074Z,23.42
2017-12-17T21:29:35.515Z,24.75
2017-12-17T21:32:02.976Z,24.98
2017-12-17T21:34:30.395Z,23.12
2017-12-17T21:36:57.908Z,24.83
2017-12-17T21:39:25.346Z,24.83
2017-12-17T21:41:52.797Z,24.05
2017-12-17T21:44:21.010Z,23.27
2017-12-17T21:46:48.434Z,23.52
2017-12-17T21:49:16.668Z,23.80
2017-12-17T21:51:44.267Z,24.27
2017-12-17T21:54:11.725Z,23.42
2017-12-17T21:56:39.174Z,23.98
2017-12-17T21:59:06.657Z,24.33
2017-12-17T22:01:34.862Z,24.52
2017-12-17T22:04:02.279Z,24.87
2017-12-17T22:06:29.714Z,24.33
2017-12-17T22:08:57.196Z,24.73
2017-12-17T22:11:25.405Z,23.77
2017-12-17T22:13:53.599Z,26.75
2017-12-17T22:16:21.081Z,22.80
2017-12-17T22:18:48.510Z,23.75
2017-12-17T22:21:15.933Z,22.08
2017-12-17T22:23:43.350Z,21.70
2017-12-17T22:26:11.542Z,21.00
2017-12-17T22:28:39.762Z,21.50
2017-12-17T22:31:07.185Z,19.60
2017-12-17T22:33:35.438Z,19.48
2017-12-17T22:36:02.846Z,18.85
2017-12-17T22:38:31.056Z,19.50
2017-12-17T22:40:59.250Z,19.33
2017-12-17T22:43:27.410Z,18.20
2017-12-17T22:45:55.591Z,18.10
2017-12-17T22:48:23.013Z,18.12
2017-12-17T22:50:50.427Z,17.70
2017-12-17T22:53:18.601Z,16.58
2017-12-17T22:55:46.027Z,15.27
2017-12-17T22:58:13.445Z,17.70
2017-12-17T23:00:40.898Z,17.00
2017-12-17T23:03:08.358Z,16.30
2017-12-17T23:05:35.890Z,16.17
2017-12-17T23:08:03.294Z,16.73
2017-12-17T23:10:30.732Z,15.18
2017-12-17T23:12:58.210Z,16.92
2017-12-17T23:15:25.692Z,15.80
2017-12-17T23:17:53.137Z,16.02
2017-12-17T23:20:20.620Z,14.65
2017-12-17T23:22:48.063Z,13.50
2017-12-17T23:25:16.238Z,15.50
2017-12-17T23:27:44.422Z,13.38
2017-12-17T23:30:12.649Z,14.45
2017-12-17T23:32:40.121Z,14.18
2017-12-17T23:35:07.609Z,13.98
2017-12-17T23:37:35.058Z,13.93
2017-12-17T23:40:02.516Z,13.35
2017-12-17T23:42:29.925Z,12.85
2017-12-17T23:44:57.347Z,11.35
2017-12-17T23:47:24.774Z,13.73
2017-12-17T23:49:52.200Z,12.75
2017-12-17T23:52:19.623Z,12.15
2017-12-17T23:54:47.810Z,12.20
2017-12-17T23:57:16.020Z,12.82
2017-12-17T23:59:43.442Z,11.60
